createdAt,value
2023-01-11T00:03:32.281Z,97.89
2023-01-11T00:08:39.963Z,97.74
2023-01-11T00:13:47.571Z,97.51
2023-01-11T00:18:57.458Z,97.54
2023-01-11T00:24:06.574Z,97.64
2023-01-11T00:29:14.249Z,97.20
2023-01-11T00:34:22.539Z,96.92
2023-01-11T00:39:32.279Z,96.65
2023-01-11T00:44:57.526Z,96.73
2023-01-11T00:50:05.603Z,96.66
2023-01-11T00:55:13.539Z,96.76
2023-01-11T01:00:22.857Z,96.90
2023-01-11T01:05:31.122Z,97.04
2023-01-11T01:10:38.665Z,97.49
2023-01-11T01:15:46.703Z,97.54
2023-01-11T01:20:55.713Z,97.70
2023-01-11T01:26:06.308Z,97.58
2023-01-11T01:31:13.727Z,97.61
2023-01-11T01:36:21.330Z,97.74
2023-01-11T01:41:29.840Z,97.61
2023-01-11T01:46:38.999Z,97.60
2023-01-11T01:51:50.038Z,97.54
2023-01-11T01:57:01.590Z,97.63
2023-01-11T02:02:10.111Z,97.58
2023-01-11T02:07:22.425Z,97.69
2023-01-11T02:12:33.644Z,97.61
2023-01-11T02:17:41.198Z,97.59
2023-01-11T02:23:21.885Z,97.70
2023-01-11T02:28:34.948Z,97.57
2023-01-11T02:33:52.265Z,97.57
2023-01-11T02:39:11.285Z,97.64
2023-01-11T02:44:45.242Z,97.38
2023-01-11T02:49:59.279Z,97.63
2023-01-11T02:55:11.942Z,97.51
2023-01-11T03:03:53.996Z,97.50
2023-01-11T03:09:21.407Z,97.83
2023-01-11T03:14:45.065Z,97.79
2023-01-11T03:19:56.586Z,97.79
2023-01-11T03:25:15.275Z,97.66
2023-01-11T03:30:29.891Z,97.35
2023-01-11T03:35:44.315Z,97.36
2023-01-11T03:40:59.115Z,97.19
2023-01-11T03:59:58.350Z,97.67
2023-01-11T04:05:10.970Z,97.94
2023-01-11T04:10:19.704Z,98.44
2023-01-11T04:15:30.652Z,98.30
2023-01-11T04:20:40.511Z,98.15
2023-01-11T04:25:48.143Z,98.46
2023-01-11T04:31:07.135Z,98.89
2023-01-11T04:36:15.462Z,98.78
2023-01-11T04:41:40.058Z,98.50
2023-01-11T04:46:47.457Z,98.69
2023-01-11T04:51:55.786Z,99.10
2023-01-11T04:57:03.614Z,99.28
2023-01-11T05:02:11.000Z,99.46
2023-01-11T05:07:18.468Z,99.51
2023-01-11T05:12:26.429Z,99.24
2023-01-11T05:17:34.282Z,99.54
2023-01-11T05:22:41.856Z,99.75
2023-01-11T05:27:49.478Z,99.08
2023-01-11T05:32:58.996Z,99.20
2023-01-11T05:38:06.737Z,99.47
2023-01-11T05:43:14.897Z,99.91
2023-01-11T05:48:25.268Z,100.00
2023-01-11T05:53:33.149Z,100.00
2023-01-11T05:58:45.044Z,100.00
2023-01-11T06:03:52.772Z,99.99
2023-01-11T06:09:00.739Z,99.96
2023-01-11T06:14:09.217Z,100.00
2023-01-11T06:19:17.300Z,100.00
2023-01-11T06:24:26.425Z,100.00
2023-01-11T06:29:33.993Z,100.00
2023-01-11T06:34:41.319Z,100.00
2023-01-11T06:39:49.514Z,99.93
2023-01-11T06:44:57.935Z,99.97
2023-01-11T06:50:10.939Z,99.79
2023-01-11T06:55:18.733Z,99.94
2023-01-11T07:00:28.605Z,99.70
2023-01-11T07:05:37.392Z,99.83
2023-01-11T07:10:45.330Z,100.00
2023-01-11T07:15:55.240Z,99.99
2023-01-11T07:21:03.298Z,99.93
2023-01-11T07:26:10.674Z,99.95
2023-01-11T07:31:18.112Z,99.89
2023-01-11T07:36:27.572Z,99.73
2023-01-11T07:41:53.123Z,99.88
2023-01-11T07:47:01.117Z,99.98
2023-01-11T07:52:08.708Z,100.00
2023-01-11T07:57:16.054Z,100.00
2023-01-11T08:02:24.497Z,100.00
2023-01-11T08:07:32.367Z,100.00
2023-01-11T08:13:02.905Z,100.00
2023-01-11T08:18:11.755Z,99.97
2023-01-11T08:23:19.783Z,99.81
2023-01-11T08:28:27.690Z,99.66
2023-01-11T08:33:35.121Z,99.75
2023-01-11T08:38:42.947Z,99.66
2023-01-11T08:43:51.132Z,99.50
2023-01-11T08:49:01.055Z,98.80
2023-01-11T08:54:12.289Z,98.47
2023-01-11T08:59:22.475Z,98.06
2023-01-11T09:04:31.564Z,97.92
2023-01-11T09:09:39.737Z,97.59
2023-01-11T09:14:47.134Z,97.82
2023-01-11T09:19:54.968Z,97.58
2023-01-11T09:25:04.553Z,96.89
2023-01-11T09:30:15.301Z,96.31
2023-01-11T09:35:23.060Z,95.64
2023-01-11T09:40:42.377Z,95.18
2023-01-11T09:45:52.333Z,95.48
2023-01-11T09:51:02.600Z,95.49
2023-01-11T09:56:16.841Z,95.43
2023-01-11T10:01:34.246Z,95.02
2023-01-11T10:06:52.497Z,94.97
2023-01-11T10:18:43.105Z,94.70
2023-01-11T10:23:26.130Z,94.03
2023-01-11T10:28:49.886Z,93.61
2023-01-11T10:34:30.707Z,93.02
2023-01-11T10:40:06.561Z,91.06
2023-01-11T10:45:22.442Z,91.81
2023-01-11T10:50:38.925Z,91.52
2023-01-11T10:55:56.256Z,90.69
2023-01-11T11:03:12.591Z,88.62
2023-01-11T11:08:28.004Z,87.96
2023-01-11T11:13:48.195Z,87.55
2023-01-11T11:18:58.761Z,86.82
2023-01-11T11:24:15.975Z,86.82
2023-01-11T11:29:30.959Z,86.54
2023-01-11T11:34:38.108Z,85.86
2023-01-11T11:39:43.691Z,85.50
2023-01-11T11:45:18.207Z,85.45
2023-01-11T11:50:44.729Z,85.04
2023-01-11T11:55:54.855Z,84.79
2023-01-11T12:01:02.739Z,84.79
2023-01-11T12:06:10.177Z,84.28
2023-01-11T12:11:25.108Z,83.67
2023-01-11T12:16:36.860Z,83.64
2023-01-11T12:21:44.448Z,83.31
2023-01-11T12:27:06.614Z,83.12
2023-01-11T12:32:32.490Z,82.53
2023-01-11T12:37:55.938Z,81.84
2023-01-11T12:43:25.751Z,81.19
2023-01-11T12:48:50.128Z,81.22
2023-01-11T12:54:20.108Z,80.92
2023-01-11T12:59:44.531Z,81.58
2023-01-11T13:05:05.424Z,81.21
2023-01-11T13:10:25.646Z,80.94
2023-01-11T13:15:44.045Z,80.86
2023-01-11T13:21:02.491Z,80.93
2023-01-11T13:26:22.127Z,80.74
2023-01-11T13:31:30.992Z,80.83
2023-01-11T13:36:45.819Z,80.68
2023-01-11T13:41:57.281Z,80.82
2023-01-11T13:47:10.530Z,80.39
2023-01-11T13:52:20.636Z,80.36
2023-01-11T13:57:36.529Z,80.40
2023-01-11T14:02:49.614Z,80.48
2023-01-11T14:08:16.469Z,80.54
2023-01-11T14:14:04.068Z,80.99
2023-01-11T14:19:21.812Z,81.45
2023-01-11T14:24:33.932Z,81.48
2023-01-11T14:30:06.959Z,80.61
2023-01-11T14:35:42.803Z,80.69
2023-01-11T14:41:04.471Z,80.96
2023-01-11T14:46:42.123Z,81.65
2023-01-11T14:51:58.093Z,81.70
2023-01-11T14:57:05.529Z,81.98
2023-01-11T15:02:27.469Z,81.96
2023-01-11T15:07:41.189Z,82.49
2023-01-11T15:12:48.396Z,83.32
2023-01-11T15:18:16.792Z,83.66
2023-01-11T15:23:25.420Z,83.96
2023-01-11T15:28:44.277Z,84.15
2023-01-11T15:33:55.801Z,84.82
2023-01-11T15:39:08.137Z,85.13
2023-01-11T15:44:33.960Z,85.26
2023-01-11T15:50:16.739Z,85.71
2023-01-11T15:55:56.829Z,86.47
2023-01-11T16:01:28.403Z,86.62
2023-01-11T16:06:44.628Z,86.86
2023-01-11T16:12:02.911Z,87.09
2023-01-11T16:17:14.870Z,87.22
2023-01-11T16:22:25.851Z,87.63
2023-01-11T16:27:36.645Z,87.93
2023-01-11T16:32:44.435Z,87.97
2023-01-11T16:37:58.143Z,88.07
2023-01-11T16:43:10.104Z,88.41
2023-01-11T16:48:19.954Z,88.06
2023-01-11T16:53:28.442Z,88.03
2023-01-11T16:58:37.231Z,88.06
2023-01-11T17:03:52.089Z,88.00
2023-01-11T17:09:10.943Z,88.20
2023-01-11T17:14:57.048Z,88.10
2023-01-11T17:20:04.944Z,87.89
2023-01-11T17:25:21.079Z,87.93
2023-01-11T17:30:30.111Z,89.06
2023-01-11T17:35:44.944Z,89.26
2023-01-11T17:40:52.946Z,89.58
2023-01-11T17:46:03.217Z,89.44
2023-01-11T17:51:10.385Z,89.20
2023-01-11T17:56:35.289Z,88.46
2023-01-11T18:01:47.266Z,88.59
2023-01-11T18:06:56.871Z,89.34
2023-01-11T18:12:13.986Z,89.71
2023-01-11T18:17:42.146Z,90.33
2023-01-11T18:23:04.733Z,90.35
2023-01-11T18:28:29.523Z,90.36
2023-01-11T18:33:40.798Z,90.61
2023-01-11T18:38:47.794Z,90.96
2023-01-11T18:43:55.898Z,91.68
2023-01-11T18:49:03.020Z,93.22
2023-01-11T18:54:16.968Z,93.75
2023-01-11T18:59:24.132Z,93.05
2023-01-11T19:04:31.316Z,93.75
2023-01-11T19:09:38.744Z,93.96
2023-01-11T19:14:46.146Z,93.94
2023-01-11T19:19:53.285Z,93.47
2023-01-11T19:25:00.450Z,93.03
2023-01-11T19:30:06.782Z,93.06
2023-01-11T19:35:15.373Z,92.74
2023-01-11T19:40:22.775Z,92.26
2023-01-11T19:45:30.418Z,91.91
2023-01-11T19:50:37.585Z,92.42
2023-01-11T19:55:43.188Z,93.15
2023-01-11T20:03:12.164Z,93.83
2023-01-11T20:08:22.435Z,93.53
2023-01-11T20:13:30.483Z,94.79
2023-01-11T20:18:38.253Z,95.67
2023-01-11T20:23:45.862Z,95.90
2023-01-11T20:28:56.893Z,95.60
2023-01-11T20:34:07.014Z,95.73
2023-01-11T20:39:15.336Z,94.97
2023-01-11T20:44:28.074Z,94.55
2023-01-11T20:59:14.101Z,93.55
2023-01-11T21:04:22.766Z,93.47
2023-01-11T21:09:32.399Z,93.38
2023-01-11T21:14:40.163Z,93.05
2023-01-11T21:19:47.850Z,92.98
2023-01-11T21:24:55.965Z,93.19
2023-01-11T21:30:03.300Z,93.52
2023-01-11T21:35:12.014Z,93.72
2023-01-11T21:40:20.920Z,94.17
2023-01-11T21:45:29.396Z,94.84
2023-01-11T21:50:36.910Z,95.38
2023-01-11T21:55:44.391Z,95.99
2023-01-11T22:00:51.955Z,96.58
2023-01-11T22:06:05.144Z,97.05
2023-01-11T22:11:13.987Z,97.60
2023-01-11T22:16:22.210Z,97.65
2023-01-11T22:21:31.054Z,97.41
2023-01-11T22:26:39.431Z,97.42
2023-01-11T22:31:51.175Z,97.44
2023-01-11T22:36:59.201Z,97.48
2023-01-11T22:42:06.937Z,97.67
2023-01-11T22:47:17.081Z,97.32
2023-01-11T22:52:26.252Z,97.49
2023-01-11T22:57:34.781Z,97.75
2023-01-11T23:02:42.277Z,98.00
2023-01-11T23:07:50.002Z,97.98
2023-01-11T23:13:14.905Z,98.21
2023-01-11T23:18:22.925Z,98.22
2023-01-11T23:23:31.677Z,98.10
2023-01-11T23:28:39.620Z,97.76
2023-01-11T23:33:47.366Z,97.55
2023-01-11T23:38:55.906Z,97.62
2023-01-11T23:44:03.763Z,97.86
2023-01-11T23:49:14.757Z,97.34
2023-01-11T23:54:38.689Z,97.09
2023-01-11T23:59:46.768Z,96.57
